Time,TemperatureF,DewpointF,PressureIn,WindDirection,WindDirectionDegrees,WindSpeedMPH,WindSpeedGustMPH,Humidity,HourlyPrecipIn,Conditions,Clouds,dailyrainin,SoftwareType,DateUTC
2013-09-03 00:06:00,61.7,60.0,29.74,South,180,2.2,-999.0,94,-99.99,,,0.00,Acu-Link.com,2013-09-03 07:06:00,
2013-09-03 00:21:00,61.3,59.6,29.74,West,270,1.7,-999.0,94,-99.99,,,0.00,Acu-Link.com,2013-09-03 07:21:00,
2013-09-03 00:36:00,60.8,59.4,29.75,North,0,0.0,-999.0,95,-99.99,,,0.00,Acu-Link.com,2013-09-03 07:36:00,
2013-09-03 00:52:00,60.4,59.5,29.75,NNE,22,1.7,-999.0,97,-99.99,,,0.00,Acu-Link.com,2013-09-03 07:52:00,
2013-09-03 01:07:00,60.3,59.4,29.75,WSW,247,2.2,-999.0,97,-99.99,,,0.00,Acu-Link.com,2013-09-03 08:07:00,
2013-09-03 01:22:00,60.3,59.7,29.76,South,180,1.7,-999.0,98,-99.99,,,0.00,Acu-Link.com,2013-09-03 08:22:00,
2013-09-03 01:37:00,60.1,59.5,29.76,West,270,0.0,-999.0,98,-99.99,,,0.00,Acu-Link.com,2013-09-03 08:37:00,
2013-09-03 01:53:00,59.7,59.1,29.75,ESE,112,0.0,-999.0,98,-99.99,,,0.00,Acu-Link.com,2013-09-03 08:53:00,
2013-09-03 02:08:00,59.4,58.8,29.75,East,90,0.0,-999.0,98,-99.99,,,0.00,Acu-Link.com,2013-09-03 09:08:00,
2013-09-03 02:23:00,59.4,59.1,29.75,SSW,202,0.0,-999.0,99,-99.99,,,0.00,Acu-Link.com,2013-09-03 09:23:00,
2013-09-03 02:38:00,59.5,59.2,29.75,NNW,337,4.7,-999.0,99,-99.99,,,0.00,Acu-Link.com,2013-09-03 09:38:00,
2013-09-03 02:53:00,59.7,59.4,29.75,East,90,0.0,-999.0,99,-99.99,,,0.00,Acu-Link.com,2013-09-03 09:53:00,
2013-09-03 03:08:00,59.5,59.2,29.75,NE,45,0.0,-999.0,99,-99.99,,,0.00,Acu-Link.com,2013-09-03 10:08:00,
2013-09-03 03:24:00,59.5,59.2,29.75,ESE,112,0.0,-999.0,99,-99.99,,,0.00,Acu-Link.com,2013-09-03 10:24:00,
2013-09-03 03:39:00,59.5,59.2,29.75,NNE,22,0.0,-999.0,99,-99.99,,,0.00,Acu-Link.com,2013-09-03 10:39:00,
2013-09-03 03:54:00,59.7,59.4,29.75,South,180,2.2,-999.0,99,-99.99,,,0.00,Acu-Link.com,2013-09-03 10:54:00,
2013-09-03 04:09:00,59.7,59.4,29.75,ENE,67,1.1,-999.0,99,-99.99,,,0.00,Acu-Link.com,2013-09-03 11:09:00,
2013-09-03 04:25:00,59.5,59.2,29.75,NNW,337,2.2,-999.0,99,-99.99,,,0.00,Acu-Link.com,2013-09-03 11:25:00,
2013-09-03 04:40:00,59.5,59.2,29.75,NE,45,5.3,-999.0,99,-99.99,,,0.00,Acu-Link.com,2013-09-03 11:40:00,
2013-09-03 04:55:00,59.5,59.2,29.75,NNW,337,4.2,-999.0,99,-99.99,,,0.00,Acu-Link.com,2013-09-03 11:55:00,
2013-09-03 05:11:00,59.5,59.2,29.75,South,180,2.7,-999.0,99,-99.99,,,0.00,Acu-Link.com,2013-09-03 12:11:00,
2013-09-03 05:26:00,59.5,59.2,29.75,WNW,292,3.2,-999.0,99,-99.99,,,0.00,Acu-Link.com,2013-09-03 12:26:00,
2013-09-03 05:41:00,59.5,59.2,29.76,ESE,112,3.7,-999.0,99,-99.99,,,0.00,Acu-Link.com,2013-09-03 12:41:00,
2013-09-03 05:56:00,59.5,59.2,29.76,ESE,112,1.1,-999.0,99,-99.99,,,0.00,Acu-Link.com,2013-09-03 12:56:00,
2013-09-03 06:12:00,59.4,59.1,29.77,ESE,112,1.1,-999.0,99,-99.99,,,0.00,Acu-Link.com,2013-09-03 13:12:00,
2013-09-03 06:27:00,59.2,58.9,29.77,NNE,22,0.0,-999.0,99,-99.99,,,0.00,Acu-Link.com,2013-09-03 13:27:00,
2013-09-03 06:42:00,59.2,58.9,29.77,ESE,112,1.7,-999.0,99,-99.99,,,0.00,Acu-Link.com,2013-09-03 13:42:00,
2013-09-03 06:57:00,59.0,58.7,29.77,West,270,3.2,-999.0,99,-99.99,,,0.00,Acu-Link.com,2013-09-03 13:57:00,
2013-09-03 07:13:00,59.0,58.7,29.78,WNW,292,4.2,-999.0,99,-99.99,,,0.00,Acu-Link.com,2013-09-03 14:13:00,
2013-09-03 07:28:00,59.2,58.9,29.78,NNE,22,2.2,-999.0,99,-99.99,,,0.00,Acu-Link.com,2013-09-03 14:28:00,
2013-09-03 07:44:00,60.1,59.8,29.79,WNW,292,3.7,-999.0,99,-99.99,,,0.00,Acu-Link.com,2013-09-03 14:44:00,
2013-09-03 07:59:00,61.9,59.9,29.78,NW,315,3.7,-999.0,93,-99.99,,,0.00,Acu-Link.com,2013-09-03 14:59:00,
2013-09-03 08:14:00,62.2,59.8,29.79,WSW,247,5.3,-999.0,92,-99.99,,,0.00,Acu-Link.com,2013-09-03 15:14:00,
2013-09-03 08:29:00,63.0,60.0,29.79,West,270,5.3,-999.0,90,-99.99,,,0.00,Acu-Link.com,2013-09-03 15:29:00,
2013-09-03 08:45:00,65.7,60.7,29.80,WNW,292,1.7,-999.0,84,-99.99,,,0.00,Acu-Link.com,2013-09-03 15:45:00,
2013-09-03 09:00:00,68.2,60.0,29.80,West,270,3.2,-999.0,75,-99.99,,,0.00,Acu-Link.com,2013-09-03 16:00:00,
2013-09-03 09:15:00,69.4,59.6,29.80,West,270,3.7,-999.0,71,-99.99,,,0.00,Acu-Link.com,2013-09-03 16:15:00,
2013-09-03 09:30:00,73.2,59.8,29.80,SW,225,2.2,-999.0,63,-99.99,,,0.00,Acu-Link.com,2013-09-03 16:30:00,
2013-09-03 09:46:00,73.0,58.3,29.81,ESE,112,3.7,-999.0,60,-99.99,,,0.00,Acu-Link.com,2013-09-03 16:46:00,
2013-09-03 10:01:00,72.1,58.3,29.81,NW,315,5.3,-999.0,62,-99.99,,,0.00,Acu-Link.com,2013-09-03 17:01:00,
2013-09-03 10:17:00,72.9,57.7,29.81,WNW,292,4.2,-999.0,59,-99.99,,,0.00,Acu-Link.com,2013-09-03 17:17:00,
2013-09-03 10:32:00,75.7,58.9,29.81,NNW,337,2.2,-999.0,56,-99.99,,,0.00,Acu-Link.com,2013-09-03 17:32:00,
2013-09-03 10:47:00,76.3,58.4,29.82,North,0,3.2,-999.0,54,-99.99,,,0.00,Acu-Link.com,2013-09-03 17:47:00,
2013-09-03 11:02:00,76.5,57.5,29.81,NNE,22,5.3,-999.0,52,-99.99,,,0.00,Acu-Link.com,2013-09-03 18:02:00,
2013-09-03 11:18:00,76.3,57.9,29.82,NNW,337,2.7,-999.0,53,-99.99,,,0.00,Acu-Link.com,2013-09-03 18:18:00,
2013-09-03 11:33:00,77.2,57.7,29.82,ESE,112,7.3,-999.0,51,-99.99,,,0.00,Acu-Link.com,2013-09-03 18:33:00,
2013-09-03 11:48:00,75.4,56.5,29.82,South,180,5.3,-999.0,52,-99.99,,,0.00,Acu-Link.com,2013-09-03 18:48:00,
2013-09-03 12:03:00,75.9,57.5,29.82,West,270,4.2,-999.0,53,-99.99,,,0.00,Acu-Link.com,2013-09-03 19:03:00,
2013-09-03 12:18:00,75.6,57.8,29.81,North,0,8.3,-999.0,54,-99.99,,,0.00,Acu-Link.com,2013-09-03 19:18:00,
2013-09-03 12:33:00,74.7,57.9,29.81,West,270,7.8,-999.0,56,-99.99,,,0.00,Acu-Link.com,2013-09-03 19:33:00,
2013-09-03 12:49:00,74.5,58.7,29.81,NNW,337,11.4,-999.0,58,-99.99,,,0.00,Acu-Link.com,2013-09-03 19:49:00,
2013-09-03 13:04:00,75.9,59.6,29.81,NNW,337,2.7,-999.0,57,-99.99,,,0.00,Acu-Link.com,2013-09-03 20:04:00,
2013-09-03 13:19:00,73.8,59.5,29.80,WNW,292,5.8,-999.0,61,-99.99,,,0.00,Acu-Link.com,2013-09-03 20:19:00,
2013-09-03 13:34:00,75.0,60.2,29.81,West,270,3.7,-999.0,60,-99.99,,,0.00,Acu-Link.com,2013-09-03 20:34:00,
2013-09-03 13:49:00,75.7,60.3,29.80,NW,315,8.9,-999.0,59,-99.99,,,0.00,Acu-Link.com,2013-09-03 20:49:00,
2013-09-03 14:04:00,75.4,60.5,29.80,West,270,7.8,-999.0,60,-99.99,,,0.00,Acu-Link.com,2013-09-03 21:04:00,
2013-09-03 14:19:00,75.7,60.3,29.79,West,270,6.3,-999.0,59,-99.99,,,0.00,Acu-Link.com,2013-09-03 21:19:00,
2013-09-03 14:50:00,75.6,61.2,29.79,NW,315,5.8,-999.0,61,-99.99,,,0.00,Acu-Link.com,2013-09-03 21:50:00,
2013-09-03 15:05:00,75.7,61.3,29.79,North,0,7.8,-999.0,61,-99.99,,,0.00,Acu-Link.com,2013-09-03 22:05:00,
2013-09-03 15:20:00,75.9,61.5,29.78,West,270,5.8,-999.0,61,-99.99,,,0.00,Acu-Link.com,2013-09-03 22:20:00,
2013-09-03 15:35:00,76.6,61.7,29.78,NNW,337,4.2,-999.0,60,-99.99,,,0.00,Acu-Link.com,2013-09-03 22:35:00,
2013-09-03 15:51:00,77.2,61.3,29.77,NNW,337,6.3,-999.0,58,-99.99,,,0.00,Acu-Link.com,2013-09-03 22:51:00,
2013-09-03 16:06:00,75.2,60.8,29.77,SE,135,4.2,-999.0,61,-99.99,,,0.00,Acu-Link.com,2013-09-03 23:06:00,
2013-09-03 16:21:00,75.7,61.7,29.77,NNW,337,8.3,-999.0,62,-99.99,,,0.00,Acu-Link.com,2013-09-03 23:21:00,
2013-09-03 16:36:00,74.5,61.5,29.77,South,180,8.9,-999.0,64,-99.99,,,0.00,Acu-Link.com,2013-09-03 23:36:00,
2013-09-03 16:52:00,74.3,61.8,29.76,NNW,337,6.8,-999.0,65,-99.99,,,0.00,Acu-Link.com,2013-09-03 23:52:00,
2013-09-03 17:07:00,74.8,62.2,29.76,WSW,247,7.8,-999.0,65,-99.99,,,0.00,Acu-Link.com,2013-09-04 00:07:00,
2013-09-03 17:22:00,73.0,61.4,29.76,SSW,202,7.3,-999.0,67,-99.99,,,0.00,Acu-Link.com,2013-09-04 00:22:00,
2013-09-03 17:37:00,73.6,62.0,29.76,North,0,4.7,-999.0,67,-99.99,,,0.00,Acu-Link.com,2013-09-04 00:37:00,
2013-09-03 17:52:00,72.9,61.7,29.75,WSW,247,5.3,-999.0,68,-99.99,,,0.00,Acu-Link.com,2013-09-04 00:52:00,
2013-09-03 18:07:00,72.7,61.5,29.76,NNE,22,4.7,-999.0,68,-99.99,,,0.00,Acu-Link.com,2013-09-04 01:07:00,
2013-09-03 18:22:00,71.1,62.0,29.75,West,270,4.7,-999.0,73,-99.99,,,0.00,Acu-Link.com,2013-09-04 01:22:00,
2013-09-03 18:37:00,68.0,61.2,29.75,NNE,22,2.2,-999.0,79,-99.99,,,0.00,Acu-Link.com,2013-09-04 01:37:00,
2013-09-03 18:52:00,66.4,61.4,29.74,NNE,22,7.3,-999.0,84,-99.99,,,0.00,Acu-Link.com,2013-09-04 01:52:00,
2013-09-03 19:07:00,65.5,61.5,29.74,NW,315,5.8,-999.0,87,-99.99,,,0.00,Acu-Link.com,2013-09-04 02:07:00,
2013-09-03 19:23:00,64.8,61.5,29.74,SE,135,8.9,-999.0,89,-99.99,,,0.00,Acu-Link.com,2013-09-04 02:23:00,
2013-09-03 19:38:00,64.4,61.4,29.74,West,270,3.7,-999.0,90,-99.99,,,0.00,Acu-Link.com,2013-09-04 02:38:00,
2013-09-03 19:53:00,64.0,61.0,29.74,East,90,4.7,-999.0,90,-99.99,,,0.00,Acu-Link.com,2013-09-04 02:53:00,
2013-09-03 20:09:00,63.9,60.9,29.74,WNW,292,8.3,-999.0,90,-99.99,,,0.00,Acu-Link.com,2013-09-04 03:09:00,
2013-09-03 20:24:00,63.7,61.0,29.75,NE,45,2.7,-999.0,91,-99.99,,,0.00,Acu-Link.com,2013-09-04 03:24:00,
2013-09-03 20:40:00,63.5,60.8,29.75,West,270,6.8,-999.0,91,-99.99,,,0.00,Acu-Link.com,2013-09-04 03:40:00,
2013-09-03 20:55:00,63.3,60.9,29.76,NNE,22,1.7,-999.0,92,-99.99,,,0.00,Acu-Link.com,2013-09-04 03:55:00,
2013-09-03 21:10:00,63.1,60.7,29.76,NNW,337,5.3,-999.0,92,-99.99,,,0.00,Acu-Link.com,2013-09-04 04:10:00,
2013-09-03 21:25:00,62.8,60.7,29.76,NNE,22,1.7,-999.0,93,-99.99,,,0.00,Acu-Link.com,2013-09-04 04:25:00,
2013-09-03 21:40:00,62.6,60.5,29.77,North,0,5.8,-999.0,93,-99.99,,,0.00,Acu-Link.com,2013-09-04 04:40:00,
2013-09-03 21:56:00,62.6,60.8,29.77,NNW,337,6.8,-999.0,94,-99.99,,,0.00,Acu-Link.com,2013-09-04 04:56:00,
2013-09-03 22:11:00,62.6,60.8,29.77,NNE,22,7.8,-999.0,94,-99.99,,,0.00,Acu-Link.com,2013-09-04 05:11:00,
2013-09-03 22:26:00,62.4,60.6,29.77,West,270,4.2,-999.0,94,-99.99,,,0.00,Acu-Link.com,2013-09-04 05:26:00,
2013-09-03 22:42:00,62.1,60.4,29.77,West,270,5.3,-999.0,94,-99.99,,,0.00,Acu-Link.com,2013-09-04 05:42:00,
2013-09-03 22:57:00,62.1,60.4,29.77,NE,45,2.2,-999.0,94,-99.99,,,0.00,Acu-Link.com,2013-09-04 05:57:00,
2013-09-03 23:12:00,61.7,60.3,29.77,WNW,292,5.3,-999.0,95,-99.99,,,0.00,Acu-Link.com,2013-09-04 06:12:00,
2013-09-03 23:27:00,61.7,60.3,29.77,NW,315,2.7,-999.0,95,-99.99,,,0.00,Acu-Link.com,2013-09-04 06:27:00,
2013-09-03 23:43:00,61.7,60.3,29.77,West,270,2.7,-999.0,95,-99.99,,,0.00,Acu-Link.com,2013-09-04 06:43:00,
2013-09-03 23:58:00,61.5,60.1,29.78,North,0,3.2,-999.0,95,-99.99,,,0.00,Acu-Link.com,2013-09-04 06:58:00,